Time;durP1;ratioP1;P1;durP2;ratioP2;P2;SDS_P1;SDS_P2;PMS_P1;PMS_P2;Temp;Humidity;BMP_temperature;BMP_pressure;BME280_temperature;BME280_humidity;BME280_pressure;Samples;Min_cycle;Max_cycle;Signal;HPM_P1;HPM_P2
2023/03/12 00:00:28;;;;;;;10.13;3.60;;;;;;;0.85;99.19;101049.94;5049483;28;20029;-87
2023/03/12 00:02:54;;;;;;;8.23;3.17;;;;;;;0.84;99.63;101058.06;5048299;28;20429;-87
2023/03/12 00:05:21;;;;;;;5.93;3.23;;;;;;;0.87;99.19;101057.69;5059665;28;20024;-88
2023/03/12 00:07:47;;;;;;;6.97;3.10;;;;;;;0.85;99.84;101054.41;5063056;28;20082;-88
2023/03/12 00:10:12;;;;;;;9.43;3.28;;;;;;;0.85;100.00;101046.50;5049779;28;20416;-88
2023/03/12 00:12:37;;;;;;;9.97;3.30;;;;;;;0.83;100.00;101045.88;5049771;28;20032;-87
2023/03/12 00:15:03;;;;;;;12.67;3.57;;;;;;;0.82;100.00;101041.59;5049555;28;20032;-88
2023/03/12 00:17:29;;;;;;;8.50;3.40;;;;;;;0.82;100.00;101041.59;5049734;28;20133;-88
2023/03/12 00:19:54;;;;;;;7.53;3.27;;;;;;;0.78;100.00;101043.81;5048678;28;20032;-87
2023/03/12 00:22:24;;;;;;;10.07;3.17;;;;;;;0.80;100.00;101041.78;5049550;28;20033;-88
2023/03/12 00:24:51;;;;;;;5.80;3.00;;;;;;;0.81;100.00;101038.16;5048902;28;20033;-87
2023/03/12 00:27:17;;;;;;;7.50;3.00;;;;;;;0.80;100.00;101033.03;5048997;28;20021;-88
2023/03/12 00:29:42;;;;;;;7.65;3.38;;;;;;;0.82;100.00;101029.22;5047616;28;20029;-88
2023/03/12 00:32:07;;;;;;;7.20;3.53;;;;;;;0.79;100.00;101015.59;5030860;28;20431;-87
2023/03/12 00:34:33;;;;;;;7.13;3.70;;;;;;;0.81;100.00;101018.84;5048755;28;20037;-88
2023/03/12 00:36:58;;;;;;;9.90;3.50;;;;;;;0.79;100.00;101010.31;5049632;28;20396;-88
2023/03/12 00:39:23;;;;;;;12.67;3.13;;;;;;;0.75;100.00;101004.59;5048832;28;20021;-88
2023/03/12 00:41:49;;;;;;;6.60;3.37;;;;;;;0.76;100.00;101008.88;5049472;28;20128;-88
2023/03/12 00:44:14;;;;;;;9.63;3.63;;;;;;;0.77;100.00;101009.66;5048478;28;20242;-87
2023/03/12 00:46:39;;;;;;;7.30;2.80;;;;;;;0.75;100.00;101018.59;5030378;28;20040;-88
2023/03/12 00:49:04;;;;;;;11.80;3.30;;;;;;;0.71;100.00;101004.16;5047981;28;20502;-88
2023/03/12 00:51:30;;;;;;;8.97;3.40;;;;;;;0.77;100.00;101001.75;5049579;28;20025;-88
2023/03/12 00:53:55;;;;;;;8.17;3.30;;;;;;;0.74;100.00;100987.94;5048398;28;20021;-87
2023/03/12 00:56:20;;;;;;;7.10;3.40;;;;;;;0.80;100.00;101001.38;5031697;28;20021;-88
2023/03/12 00:58:46;;;;;;;4.73;2.80;;;;;;;0.79;100.00;100990.03;5048172;28;20029;-87
2023/03/12 01:01:11;;;;;;;6.95;2.60;;;;;;;0.80;100.00;100991.66;5047148;28;20818;-87
2023/03/12 01:03:37;;;;;;;9.13;3.63;;;;;;;0.73;100.00;100983.66;5060311;28;20129;-87
2023/03/12 01:06:03;;;;;;;7.93;3.30;;;;;;;0.81;100.00;100985.38;5049381;28;20383;-88
2023/03/12 01:08:29;;;;;;;7.68;3.40;;;;;;;0.83;100.00;100990.47;5048130;28;20112;-87
2023/03/12 01:10:54;;;;;;;9.57;3.50;;;;;;;0.88;100.00;100982.81;5049129;28;20108;-88
2023/03/12 01:13:20;;;;;;;10.00;3.23;;;;;;;0.88;100.00;100977.53;5047748;28;20099;-88
2023/03/12 01:15:45;;;;;;;6.63;3.40;;;;;;;0.86;100.00;100961.06;5051524;28;20028;-88
2023/03/12 01:18:11;;;;;;;7.77;2.83;;;;;;;0.89;100.00;100966.78;5055799;28;20314;-88
2023/03/12 01:20:36;;;;;;;6.97;3.20;;;;;;;0.86;100.00;100958.44;5034923;28;20499;-88
2023/03/12 01:23:02;;;;;;;9.20;3.20;;;;;;;0.89;99.70;100961.50;5050697;28;20487;-87
2023/03/12 01:25:27;;;;;;;6.65;3.30;;;;;;;0.95;99.91;100969.66;5032992;28;20029;-88
2023/03/12 01:27:53;;;;;;;11.13;3.40;;;;;;;0.94;99.28;100963.56;5036990;28;20710;-88
2023/03/12 01:30:18;;;;;;;9.53;3.13;;;;;;;0.94;100.00;100955.63;5068370;28;20475;-88
2023/03/12 01:32:43;;;;;;;6.37;3.17;;;;;;;0.98;100.00;100980.66;5072645;28;20060;-87
2023/03/12 01:35:09;;;;;;;8.30;3.50;;;;;;;0.98;98.75;100980.66;5051380;28;20119;-88
2023/03/12 01:37:35;;;;;;;10.15;3.38;;;;;;;0.98;99.56;100983.28;5051481;28;20124;-88
2023/03/12 01:40:01;;;;;;;6.33;3.60;;;;;;;0.98;99.79;100978.00;5052025;28;20036;-88
2023/03/12 01:42:26;;;;;;;8.63;3.58;;;;;;;0.97;98.80;100965.03;5034345;28;20059;-88
2023/03/12 01:45:00;;;;;;;6.60;3.40;;;;;;;0.98;98.34;100951.63;5051228;28;20033;-88
2023/03/12 01:47:30;;;;;;;7.47;3.17;;;;;;;1.02;99.17;100949.41;5052035;28;20024;-88
2023/03/12 01:49:57;;;;;;;10.00;3.55;;;;;;;1.04;98.57;100958.78;5057904;28;20032;-88
2023/03/12 01:52:28;;;;;;;5.53;3.00;;;;;;;1.01;99.19;100953.88;5044538;28;20033;-87
2023/03/12 01:54:59;;;;;;;6.50;3.45;;;;;;;1.00;99.59;100933.78;5032986;28;20403;-88
2023/03/12 01:57:33;;;;;;;9.43;4.10;;;;;;;1.01;99.63;100937.22;5051205;28;20055;-88
2023/03/12 02:00:07;;;;;;;7.93;3.63;;;;;;;1.02;98.66;100930.94;5054440;28;20031;-88
2023/03/12 02:02:35;;;;;;;7.07;3.38;;;;;;;1.02;98.79;100937.03;5072816;28;20468;-88
2023/03/12 02:05:14;;;;;;;8.07;3.30;;;;;;;1.02;98.57;100941.50;5055529;28;20031;-88
2023/03/12 02:07:39;;;;;;;7.53;2.92;;;;;;;0.99;99.74;100929.50;5052282;28;20039;-88
2023/03/12 02:10:05;;;;;;;8.03;3.20;;;;;;;1.01;99.09;100935.41;5069989;28;20048;-88
2023/03/12 02:12:30;;;;;;;7.18;3.40;;;;;;;1.01;98.78;100927.50;5072303;28;20025;-88
2023/03/12 02:14:56;;;;;;;8.30;3.30;;;;;;;1.00;99.87;100910.03;5054699;28;20020;-88
2023/03/12 02:17:21;;;;;;;9.90;3.40;;;;;;;1.04;99.33;100921.00;5071821;28;20673;-87
2023/03/12 02:20:11;;;;;;;8.45;3.80;;;;;;;1.05;99.79;100917.34;5050644;28;20021;-87
2023/03/12 02:22:43;;;;;;;6.03;3.27;;;;;;;1.06;99.51;100916.34;5050577;28;20039;-87
2023/03/12 02:25:27;;;;;;;6.85;3.17;;;;;;;1.05;100.00;100905.00;5050374;28;20037;-88
2023/03/12 02:27:53;;;;;;;10.50;3.63;;;;;;;1.04;99.35;100903.38;5050734;28;20032;-87
2023/03/12 02:30:20;;;;;;;10.50;3.72;;;;;;;1.02;99.89;100897.47;5059227;28;20086;-88
2023/03/12 02:32:48;;;;;;;7.45;3.40;;;;;;;1.05;99.87;100897.06;5064193;28;20033;-88
2023/03/12 02:35:17;;;;;;;10.10;3.30;;;;;;;1.03;100.00;100890.34;5050844;28;20157;-88
2023/03/12 02:38:30;;;;;;;13.20;3.88;;;;;;;1.07;100.00;100901.34;5050404;28;20060;-88
2023/03/12 02:40:59;;;;;;;6.30;3.27;;;;;;;1.04;99.34;100892.81;5012231;28;20048;-88
2023/03/12 02:43:24;;;;;;;10.47;3.80;;;;;;;1.07;100.00;100896.88;5036526;28;20291;-88
2023/03/12 02:45:50;;;;;;;6.60;3.10;;;;;;;1.03;100.00;100893.81;5034394;28;20164;-87
2023/03/12 02:48:15;;;;;;;8.97;3.90;;;;;;;1.06;100.00;100905.78;5066712;28;20081;-87
2023/03/12 02:50:41;;;;;;;8.63;3.07;;;;;;;1.04;100.00;100903.38;5070964;28;20067;-88
2023/03/12 02:53:07;;;;;;;6.10;3.33;;;;;;;1.05;100.00;100905.00;5069154;28;20567;-88
2023/03/12 02:55:32;;;;;;;9.47;3.60;;;;;;;1.03;100.00;100906.19;5051119;28;20039;-88
2023/03/12 02:57:57;;;;;;;6.10;3.47;;;;;;;1.03;100.00;100901.72;5032350;28;20083;-87
2023/03/12 03:00:23;;;;;;;6.30;3.60;;;;;;;1.04;100.00;100897.25;5050715;28;20043;-88
2023/03/12 03:02:48;;;;;;;6.63;3.50;;;;;;;1.06;100.00;100895.25;5057799;28;20024;-88
2023/03/12 03:05:13;;;;;;;12.53;4.17;;;;;;;1.08;100.00;100884.50;5049462;28;20550;-88
2023/03/12 03:07:39;;;;;;;8.17;3.80;;;;;;;1.10;100.00;100879.81;5050672;28;20021;-89
2023/03/12 03:10:05;;;;;;;7.68;3.70;;;;;;;1.07;100.00;100882.88;5050117;28;20033;-88
2023/03/12 03:12:31;;;;;;;9.88;4.07;;;;;;;1.09;100.00;100889.56;5048587;28;20037;-91
2023/03/12 03:14:56;;;;;;;8.23;3.83;;;;;;;1.09;100.00;100884.31;5047337;28;20048;-88
2023/03/12 03:17:23;;;;;;;7.20;4.15;;;;;;;1.05;100.00;100889.16;5043716;28;20095;-88
2023/03/12 03:19:49;;;;;;;9.18;4.20;;;;;;;1.05;100.00;100888.31;5049805;28;20055;-88
2023/03/12 03:22:15;;;;;;;9.80;4.27;;;;;;;1.04;100.00;100892.81;5050676;28;20099;-88
2023/03/12 03:24:40;;;;;;;7.57;3.87;;;;;;;1.00;100.00;100894.19;5049802;28;20382;-88
2023/03/12 03:27:06;;;;;;;11.37;4.00;;;;;;;1.00;100.00;100888.09;5038121;28;20033;-88
2023/03/12 03:29:31;;;;;;;12.80;4.40;;;;;;;1.03;100.00;100883.25;5070006;28;20020;-87
2023/03/12 03:31:57;;;;;;;13.87;4.43;;;;;;;1.11;100.00;100884.09;5048653;28;20056;-87
2023/03/12 03:34:22;;;;;;;6.50;3.93;;;;;;;1.09;100.00;100879.03;5051503;28;20490;-87
2023/03/12 03:36:47;;;;;;;7.50;3.43;;;;;;;1.11;100.00;100882.28;5068658;28;20056;-87
2023/03/12 03:39:13;;;;;;;9.35;4.00;;;;;;;1.15;100.00;100877.44;5034031;28;20040;-87
2023/03/12 03:41:38;;;;;;;10.13;3.37;;;;;;;1.20;100.00;100875.03;5045112;28;20017;-86
2023/03/12 03:44:04;;;;;;;7.23;3.30;;;;;;;1.22;100.00;100880.94;5063357;28;20590;-87
2023/03/12 03:46:29;;;;;;;7.60;3.83;;;;;;;1.25;100.00;100880.56;5049590;28;20384;-87
2023/03/12 03:48:55;;;;;;;11.35;3.72;;;;;;;1.26;100.00;100866.34;5030394;28;20086;-88
2023/03/12 03:51:21;;;;;;;10.55;3.38;;;;;;;1.28;100.00;100863.50;5045525;28;20029;-87
2023/03/12 03:53:46;;;;;;;5.53;3.30;;;;;;;1.25;100.00;100848.03;5049218;28;20032;-87
2023/03/12 03:56:14;;;;;;;6.80;3.37;;;;;;;1.26;100.00;100842.59;5049818;28;20056;-87
2023/03/12 03:58:39;;;;;;;9.05;4.10;;;;;;;1.28;100.00;100842.38;5049573;28;20397;-87
2023/03/12 04:01:05;;;;;;;10.27;3.83;;;;;;;1.24;100.00;100826.13;5048094;28;20035;-87
2023/03/12 04:03:31;;;;;;;10.38;3.53;;;;;;;1.24;100.00;100822.66;5042345;28;20036;-87
2023/03/12 04:05:59;;;;;;;7.28;3.40;;;;;;;1.18;100.00;100830.34;5042869;28;20021;-87
2023/03/12 04:08:25;;;;;;;9.17;3.80;;;;;;;1.17;100.00;100828.72;5046373;28;20112;-87
2023/03/12 04:10:51;;;;;;;8.60;3.73;;;;;;;1.15;100.00;100828.09;5053249;28;20286;-87
2023/03/12 04:13:17;;;;;;;6.22;3.72;;;;;;;1.13;100.00;100826.66;5069857;28;20047;-87
2023/03/12 04:15:51;;;;;;;7.60;3.80;;;;;;;1.15;100.00;100829.91;5059351;28;20079;-87
2023/03/12 04:18:17;;;;;;;9.15;4.45;;;;;;;1.16;100.00;100819.19;5047847;28;20659;-87
2023/03/12 04:20:43;;;;;;;8.70;4.30;;;;;;;1.15;100.00;100804.34;5048874;28;20425;-87
2023/03/12 04:23:08;;;;;;;8.60;4.13;;;;;;;1.16;100.00;100802.50;5053787;28;20039;-87
2023/03/12 04:25:34;;;;;;;9.52;3.70;;;;;;;1.14;100.00;100796.59;5069826;28;20119;-87
2023/03/12 04:28:00;;;;;;;10.83;3.50;;;;;;;1.13;100.00;100787.88;5058501;28;20029;-87
2023/03/12 04:30:25;;;;;;;11.13;4.32;;;;;;;1.13;100.00;100782.59;5031157;28;20036;-87
2023/03/12 04:32:52;;;;;;;10.07;3.67;;;;;;;1.18;100.00;100782.00;5047696;28;20029;-87
2023/03/12 04:35:17;;;;;;;7.55;3.70;;;;;;;1.18;100.00;100782.00;5048736;28;20029;-87
2023/03/12 04:37:43;;;;;;;11.00;3.37;;;;;;;1.15;100.00;100770.03;5047705;28;20033;-87
2023/03/12 04:40:09;;;;;;;7.80;3.47;;;;;;;1.15;100.00;100767.41;5059300;28;20399;-87
2023/03/12 04:42:35;;;;;;;8.65;4.07;;;;;;;1.20;100.00;100772.88;5052823;28;20063;-87
2023/03/12 04:45:02;;;;;;;8.27;4.13;;;;;;;1.23;100.00;100762.94;5047923;28;20025;-88
2023/03/12 04:47:29;;;;;;;10.68;3.80;;;;;;;1.23;100.00;100762.94;5046325;28;20056;-89
2023/03/12 04:49:55;;;;;;;7.60;3.53;;;;;;;1.22;100.00;100767.41;5047830;28;20558;-86
2023/03/12 04:52:20;;;;;;;6.97;3.90;;;;;;;1.24;100.00;100768.03;5047000;28;20044;-87
2023/03/12 04:54:45;;;;;;;9.97;3.90;;;;;;;1.29;100.00;100770.09;5036593;28;20028;-86
2023/03/12 04:57:11;;;;;;;6.80;3.58;;;;;;;1.30;100.00;100761.94;5071734;28;20558;-87
2023/03/12 04:59:37;;;;;;;6.93;3.43;;;;;;;1.26;100.00;100752.00;5072754;28;20059;-87
2023/03/12 05:02:03;;;;;;;7.10;3.30;;;;;;;1.32;100.00;100762.56;5072989;28;20128;-89
2023/03/12 05:04:28;;;;;;;10.00;3.37;;;;;;;1.33;100.00;100752.84;5068554;28;20108;-88
2023/03/12 05:06:53;;;;;;;8.13;3.30;;;;;;;1.34;100.00;100750.00;5051070;28;20068;-88
2023/03/12 05:09:18;;;;;;;11.90;3.80;;;;;;;1.36;100.00;100741.88;5051479;28;20410;-87
2023/03/12 05:11:44;;;;;;;10.00;3.50;;;;;;;1.34;100.00;100733.34;5058514;28;20467;-88
2023/03/12 05:14:10;;;;;;;11.90;3.47;;;;;;;1.34;100.00;100726.22;5063245;28;20116;-87
2023/03/12 05:16:36;;;;;;;8.63;3.53;;;;;;;1.34;100.00;100714.88;5053439;28;20056;-88
2023/03/12 05:19:03;;;;;;;9.02;3.42;;;;;;;1.40;100.00;100721.16;5050897;28;20064;-87
2023/03/12 05:21:32;;;;;;;12.93;3.67;;;;;;;1.40;100.00;100721.97;5051252;28;20510;-88
2023/03/12 05:23:58;;;;;;;8.50;3.50;;;;;;;1.43;100.00;100731.34;5050325;28;20028;-87
2023/03/12 05:26:27;;;;;;;8.00;3.33;;;;;;;1.45;100.00;100726.69;5033165;28;20658;-87
2023/03/12 05:28:53;;;;;;;11.38;3.13;;;;;;;1.48;100.00;100729.72;5049705;28;20033;-87
2023/03/12 05:31:19;;;;;;;8.05;3.20;;;;;;;1.49;100.00;100725.25;5050408;28;20373;-88
2023/03/12 05:33:45;;;;;;;7.53;3.30;;;;;;;1.51;100.00;100723.22;5067903;28;20047;-88
2023/03/12 05:36:12;;;;;;;9.20;3.30;;;;;;;1.51;100.00;100710.00;5071449;28;20387;-88
2023/03/12 05:38:37;;;;;;;8.18;3.28;;;;;;;1.49;100.00;100712.88;5049154;28;20029;-88
2023/03/12 05:41:03;;;;;;;7.80;3.90;;;;;;;1.53;100.00;100709.81;5048920;28;20033;-88
2023/03/12 05:43:29;;;;;;;13.00;3.95;;;;;;;1.53;100.00;100720.41;5048762;28;20424;-87
2023/03/12 05:45:59;;;;;;;13.67;4.10;;;;;;;1.54;100.00;100714.91;5051724;28;20068;-86
2023/03/12 05:48:24;;;;;;;8.10;4.28;;;;;;;1.53;100.00;100705.34;5051057;28;20400;-86
2023/03/12 05:50:50;;;;;;;11.03;3.90;;;;;;;1.50;100.00;100696.00;5050971;28;20037;-86
2023/03/12 05:53:15;;;;;;;13.57;4.13;;;;;;;1.54;100.00;100701.69;5041684;28;20049;-87
2023/03/12 05:55:40;;;;;;;12.03;3.53;;;;;;;1.54;100.00;100704.34;5014730;28;20033;-86
2023/03/12 05:58:07;;;;;;;12.00;3.80;;;;;;;1.58;100.00;100710.03;5033159;28;20042;-86
2023/03/12 06:00:37;;;;;;;9.40;3.60;;;;;;;1.58;100.00;100702.94;5050484;28;20583;-87
2023/03/12 06:03:05;;;;;;;12.23;3.60;;;;;;;1.55;100.00;100692.75;5051439;28;20033;-87
2023/03/12 06:05:32;;;;;;;13.37;5.33;;;;;;;1.57;100.00;100688.09;5050484;28;20029;-87
2023/03/12 06:07:58;;;;;;;13.10;4.93;;;;;;;1.60;100.00;100692.16;5050630;28;20299;-87
2023/03/12 06:10:25;;;;;;;12.68;4.97;;;;;;;1.62;100.00;100696.22;5055077;28;20150;-87
2023/03/12 06:12:51;;;;;;;9.68;4.45;;;;;;;1.69;100.00;100713.91;5071356;28;20028;-87
2023/03/12 06:15:17;;;;;;;12.10;4.97;;;;;;;1.67;100.00;100706.19;5066932;28;20159;-87
2023/03/12 06:17:44;;;;;;;12.93;5.00;;;;;;;1.73;100.00;100709.84;5050042;28;20141;-86
2023/03/12 06:20:10;;;;;;;11.20;5.18;;;;;;;1.73;100.00;100713.31;5040098;28;20029;-87
2023/03/12 06:22:35;;;;;;;11.25;4.88;;;;;;;1.80;100.00;100713.31;5051065;28;20064;-90
2023/03/12 06:25:00;;;;;;;10.53;4.90;;;;;;;1.83;100.00;100723.47;5054280;28;20056;-89
2023/03/12 06:27:26;;;;;;;13.53;4.40;;;;;;;1.83;100.00;100715.53;5059713;28;20082;-88
2023/03/12 06:29:51;;;;;;;10.73;4.10;;;;;;;1.83;100.00;100726.09;5058519;28;20391;-92
2023/03/12 06:32:17;;;;;;;12.80;4.20;;;;;;;1.80;100.00;100719.41;5071614;28;20032;-89
2023/03/12 06:34:42;;;;;;;11.33;4.20;;;;;;;1.81;100.00;100709.66;5051100;28;20020;-90
2023/03/12 06:37:08;;;;;;;8.13;4.37;;;;;;;1.81;100.00;100707.81;5032406;28;20032;-89
2023/03/12 06:39:33;;;;;;;13.68;5.20;;;;;;;1.81;100.00;100693.81;5050606;28;20032;-90
2023/03/12 06:41:59;;;;;;;13.30;5.17;;;;;;;1.82;100.00;100698.09;5032439;28;20388;-88
2023/03/12 06:44:24;;;;;;;11.67;5.20;;;;;;;1.88;100.00;100693.81;5051246;28;20059;-89
2023/03/12 06:46:51;;;;;;;12.10;5.10;;;;;;;1.87;100.00;100692.19;5048530;28;20396;-87
2023/03/12 06:49:16;;;;;;;16.87;5.77;;;;;;;1.88;100.00;100691.97;5050166;28;20287;-89
2023/03/12 06:51:41;;;;;;;15.65;6.72;;;;;;;1.87;100.00;100673.69;5049000;28;20033;-88
2023/03/12 06:54:08;;;;;;;18.07;7.77;;;;;;;1.92;100.00;100681.78;5058689;28;20041;-88
2023/03/12 06:56:33;;;;;;;16.35;5.07;;;;;;;1.96;100.00;100673.28;5061823;28;20200;-91
2023/03/12 06:58:59;;;;;;;9.73;5.23;;;;;;;2.00;100.00;100668.38;5048797;28;20131;-90
2023/03/12 07:01:24;;;;;;;10.83;5.17;;;;;;;2.02;100.00;100668.16;5055310;28;20020;-91
2023/03/12 07:03:49;;;;;;;13.20;5.60;;;;;;;2.05;100.00;100673.88;5050057;28;20103;-90
2023/03/12 07:06:17;;;;;;;14.57;5.90;;;;;;;2.05;100.00;100665.94;5037338;28;20393;-90
2023/03/12 07:08:43;;;;;;;12.77;5.03;;;;;;;2.09;100.00;100671.63;5039038;28;20546;-90
2023/03/12 07:11:09;;;;;;;16.03;6.07;;;;;;;2.08;100.00;100662.06;5048247;28;20296;-89
2023/03/12 07:13:37;;;;;;;11.73;5.45;;;;;;;2.10;100.00;100665.31;5047767;28;20112;-89
2023/03/12 07:16:03;;;;;;;14.40;5.70;;;;;;;2.07;100.00;100657.81;5050360;28;20057;-89
2023/03/12 07:18:28;;;;;;;15.13;6.40;;;;;;;2.06;100.00;100664.09;5048951;28;20114;-89
2023/03/12 07:20:53;;;;;;;12.47;5.60;;;;;;;2.09;100.00;100659.25;5051911;28;20178;-89
2023/03/12 07:23:20;;;;;;;11.60;5.60;;;;;;;2.21;100.00;100658.59;5069546;28;20028;-87
2023/03/12 07:25:46;;;;;;;9.95;5.72;;;;;;;2.31;100.00;100664.28;5049792;28;20017;-90
2023/03/12 07:28:12;;;;;;;20.65;6.28;;;;;;;2.32;100.00;100676.47;5049435;28;20087;-89
2023/03/12 07:30:38;;;;;;;13.95;5.85;;;;;;;2.35;100.00;100678.72;5053730;28;20029;-89
2023/03/12 07:33:06;;;;;;;12.45;4.60;;;;;;;2.37;100.00;100681.16;5049124;28;20032;-90
2023/03/12 07:35:32;;;;;;;14.45;5.50;;;;;;;2.34;100.00;100673.63;5051086;28;20096;-90
2023/03/12 07:37:58;;;;;;;11.93;5.37;;;;;;;2.35;100.00;100677.91;5050109;28;20056;-90
2023/03/12 07:40:24;;;;;;;10.60;5.55;;;;;;;2.35;100.00;100680.56;5047901;28;20029;-90
2023/03/12 07:42:50;;;;;;;14.90;6.73;;;;;;;2.35;100.00;100672.63;5048909;28;20100;-90
2023/03/12 07:45:16;;;;;;;16.02;6.97;;;;;;;2.40;100.00;100668.34;5048558;28;20036;-90
2023/03/12 07:47:41;;;;;;;13.65;6.25;;;;;;;2.44;100.00;100678.50;5065664;28;20534;-89
2023/03/12 07:50:07;;;;;;;17.20;8.13;;;;;;;2.40;100.00;100667.50;5052546;28;20068;-89
2023/03/12 07:52:32;;;;;;;12.85;5.45;;;;;;;2.45;100.00;100673.00;5050586;28;20032;-90
2023/03/12 07:54:58;;;;;;;12.87;5.93;;;;;;;2.52;100.00;100680.91;5050598;28;20116;-90
2023/03/12 07:57:24;;;;;;;14.43;7.07;;;;;;;2.47;100.00;100662.19;5049820;28;20020;-90
2023/03/12 07:59:49;;;;;;;10.10;6.30;;;;;;;2.51;100.00;100668.69;5047590;28;20045;-89
2023/03/12 08:02:14;;;;;;;12.93;7.03;;;;;;;2.56;100.00;100672.34;5050435;28;20025;-89
2023/03/12 08:04:40;;;;;;;15.33;7.03;;;;;;;2.62;100.00;100675.19;5050138;28;20036;-89
2023/03/12 08:07:05;;;;;;;16.80;8.13;;;;;;;2.64;100.00;100675.78;5050042;28;20499;-89
2023/03/12 08:09:32;;;;;;;16.57;8.07;;;;;;;2.67;100.00;100672.72;5048040;28;20295;-89
2023/03/12 08:11:57;;;;;;;11.38;7.40;;;;;;;2.75;100.00;100675.13;5067701;28;20032;-89
2023/03/12 08:14:22;;;;;;;12.17;7.43;;;;;;;2.82;100.00;100665.34;5070520;28;20550;-90
2023/03/12 08:16:48;;;;;;;15.93;8.37;;;;;;;2.94;100.00;100670.78;5062456;28;20033;-91
2023/03/12 08:19:14;;;;;;;13.50;8.23;;;;;;;3.00;100.00;100664.66;5048370;28;20020;-90
2023/03/12 08:21:39;;;;;;;13.43;8.30;;;;;;;3.10;100.00;100676.63;5035937;28;20026;-91
2023/03/12 08:24:04;;;;;;;15.97;8.33;;;;;;;3.14;100.00;100678.63;5048564;28;20032;-91
2023/03/12 08:26:30;;;;;;;14.40;8.63;;;;;;;3.16;100.00;100671.28;5053119;28;20135;-94
2023/03/12 08:28:55;;;;;;;20.17;8.73;;;;;;;3.23;100.00;100670.44;5052129;28;20555;-95
2023/03/12 08:31:21;;;;;;;20.77;10.43;;;;;;;3.26;100.00;100670.03;5036212;28;20064;-93
2023/03/12 08:33:46;;;;;;;21.05;9.73;;;;;;;3.33;100.00;100682.22;5053612;28;20029;-93
2023/03/12 08:36:11;;;;;;;15.93;9.13;;;;;;;3.43;100.00;100683.56;5054577;28;20021;-92
2023/03/12 08:38:37;;;;;;;15.07;9.00;;;;;;;3.51;100.00;100685.13;5053866;28;20029;-91
2023/03/12 08:41:02;;;;;;;12.20;8.38;;;;;;;3.57;100.00;100684.28;5054206;28;20033;-91
2023/03/12 08:43:28;;;;;;;14.17;8.30;;;;;;;3.63;100.00;100697.50;5052980;28;20037;-90
2023/03/12 08:45:58;;;;;;;12.17;7.97;;;;;;;3.61;100.00;100686.28;5053111;28;20111;-90
2023/03/12 08:48:24;;;;;;;13.25;8.27;;;;;;;3.74;100.00;100698.66;5053642;28;20025;-90
2023/03/12 08:50:50;;;;;;;13.38;7.97;;;;;;;3.82;100.00;100702.06;5053763;28;20021;-90
2023/03/12 08:53:16;;;;;;;15.03;8.60;;;;;;;3.91;100.00;100708.72;5053961;28;20561;-90
2023/03/12 08:55:41;;;;;;;15.63;7.85;;;;;;;4.04;100.00;100692.69;5056730;28;20063;-91
2023/03/12 08:58:07;;;;;;;14.70;8.20;;;;;;;4.15;100.00;100709.72;5065780;28;20052;-92
2023/03/12 09:00:32;;;;;;;13.83;7.93;;;;;;;4.20;100.00;100695.84;5075713;28;20267;-92
2023/03/12 09:03:04;;;;;;;14.43;8.73;;;;;;;4.22;100.00;100691.09;5075666;28;20050;-95
2023/03/12 09:05:29;;;;;;;14.23;8.07;;;;;;;4.35;100.00;100701.59;5055618;28;20025;-92
2023/03/12 09:07:57;;;;;;;18.53;9.87;;;;;;;4.40;100.00;100707.03;5053707;28;20025;-93
2023/03/12 09:10:24;;;;;;;18.48;9.57;;;;;;;4.48;100.00;100703.28;5069836;28;20047;-90
2023/03/12 09:12:49;;;;;;;18.88;9.57;;;;;;;4.46;100.00;100696.59;5071500;28;20024;-91
2023/03/12 09:15:15;;;;;;;17.93;9.77;;;;;;;4.68;100.00;100718.19;5051942;28;20026;-92
2023/03/12 09:17:40;;;;;;;17.83;10.87;;;;;;;4.78;100.00;100707.06;5035443;28;20032;-90
2023/03/12 09:20:07;;;;;;;24.30;11.52;;;;;;;5.00;100.00;100708.22;5052568;28;20025;-91
2023/03/12 09:22:35;;;;;;;20.20;11.88;;;;;;;5.17;100.00;100704.97;5053281;28;20025;-92
2023/03/12 09:25:03;;;;;;;26.03;13.10;;;;;;;5.45;100.00;100711.56;5037918;28;20440;-92
2023/03/12 09:27:29;;;;;;;27.67;13.13;;;;;;;5.57;100.00;100711.56;5015913;28;20038;-94
2023/03/12 09:29:56;;;;;;;24.05;12.75;;;;;;;5.75;100.00;100705.38;5036186;28;21099;-95
2023/03/12 09:32:22;;;;;;;24.33;12.27;;;;;;;5.84;100.00;100708.50;5035464;28;20682;-95
2023/03/12 09:34:47;;;;;;;25.83;14.53;;;;;;;5.88;100.00;100689.19;5049947;28;20112;-93
2023/03/12 09:37:12;;;;;;;22.17;13.23;;;;;;;6.02;100.00;100705.78;5034531;28;20030;-93
2023/03/12 09:39:38;;;;;;;19.77;13.03;;;;;;;6.09;100.00;100718.97;5062144;28;20032;-93
2023/03/12 09:42:13;;;;;;;22.90;13.18;;;;;;;6.16;100.00;100714.38;5063985;28;20439;-92
2023/03/12 09:44:44;;;;;;;23.60;14.02;;;;;;;6.24;100.00;100705.22;5061054;28;20037;-91
2023/03/12 09:47:23;;;;;;;27.70;14.43;;;;;;;6.45;100.00;100711.81;5056972;28;20029;-92
2023/03/12 09:50:06;;;;;;;23.25;13.65;;;;;;;6.61;100.00;100718.28;5043196;28;20025;-92
2023/03/12 09:52:41;;;;;;;23.08;14.10;;;;;;;6.76;100.00;100731.09;5044907;28;20029;-92
2023/03/12 09:55:20;;;;;;;24.27;13.57;;;;;;;6.70;100.00;100728.56;5052927;28;20112;-92
2023/03/12 09:57:49;;;;;;;24.33;13.30;;;;;;;6.79;100.00;100741.28;5052623;28;20025;-94
2023/03/12 10:00:19;;;;;;;22.58;12.85;;;;;;;6.86;100.00;100733.16;5043897;28;20027;-94
2023/03/12 10:03:14;;;;;;;24.83;13.87;;;;;;;7.02;100.00;100739.63;5052520;28;20125;-91
2023/03/12 10:06:09;;;;;;;18.63;12.20;;;;;;;6.97;100.00;100748.31;5050310;28;20385;-92
2023/03/12 10:08:59;;;;;;;21.00;13.55;;;;;;;6.99;100.00;100747.28;5039060;28;20033;-93
2023/03/12 10:11:54;;;;;;;21.73;14.05;;;;;;;7.10;100.00;100749.91;5048015;28;20033;-94
2023/03/12 10:14:32;;;;;;;23.17;14.48;;;;;;;7.22;100.00;100747.19;5051650;28;20133;-92
2023/03/12 10:17:17;;;;;;;24.13;13.80;;;;;;;7.31;100.00;100736.97;5053140;28;20036;-90
2023/03/12 10:20:01;;;;;;;24.05;14.40;;;;;;;7.55;100.00;100747.53;5049018;28;20084;-88
2023/03/12 10:22:32;;;;;;;24.80;14.57;;;;;;;7.72;100.00;100752.91;5057304;28;20479;-93
2023/03/12 10:25:20;;;;;;;24.48;14.90;;;;;;;7.82;100.00;100752.28;5056462;28;20044;-93
2023/03/12 10:27:48;;;;;;;25.05;13.98;;;;;;;7.83;100.00;100733.34;5031413;28;20033;-94
2023/03/12 10:30:23;;;;;;;27.08;13.73;;;;;;;7.79;100.00;100734.06;5055299;28;20112;-89
2023/03/12 10:32:53;;;;;;;30.77;15.15;;;;;;;7.69;100.00;100732.03;5052713;28;20042;-87
2023/03/12 10:35:21;;;;;;;26.85;14.90;;;;;;;7.62;100.00;100742.03;5036045;28;20510;-89
2023/03/12 10:37:55;;;;;;;31.97;14.90;;;;;;;7.56;100.00;100741.16;5053048;28;20032;-87
2023/03/12 10:40:24;;;;;;;34.57;15.67;;;;;;;7.65;100.00;100747.72;5043284;28;20295;-89
2023/03/12 10:42:49;;;;;;;37.10;16.52;;;;;;;7.76;100.00;100747.88;5033118;28;20020;-88
2023/03/12 10:45:35;;;;;;;38.40;16.92;;;;;;;7.72;100.00;100739.56;5051899;28;20159;-88
2023/03/12 10:48:07;;;;;;;38.90;15.40;;;;;;;7.85;100.00;100735.78;5052143;28;20031;-89
2023/03/12 10:50:37;;;;;;;36.05;15.65;;;;;;;7.96;100.00;100737.56;5048023;28;20504;-90
2023/03/12 10:53:11;;;;;;;37.03;16.10;;;;;;;8.26;100.00;100735.63;5050265;28;20461;-89
2023/03/12 10:55:37;;;;;;;39.80;17.37;;;;;;;8.54;100.00;100732.03;5036948;28;20310;-90
2023/03/12 10:58:04;;;;;;;37.42;17.08;;;;;;;8.80;100.00;100737.72;5055333;28;20032;-89
2023/03/12 11:00:31;;;;;;;40.33;17.20;;;;;;;8.90;100.00;100735.19;5049813;28;20033;-89
2023/03/12 11:03:16;;;;;;;42.05;15.23;;;;;;;9.08;100.00;100731.38;5054647;28;20029;-88
2023/03/12 11:05:48;;;;;;;38.30;15.45;;;;;;;9.40;100.00;100738.66;5071138;28;20055;-87
2023/03/12 11:08:22;;;;;;;34.90;14.95;;;;;;;9.71;100.00;100738.16;5061507;28;20480;-87
2023/03/12 11:10:49;;;;;;;31.67;13.33;;;;;;;9.88;100.00;100738.03;5046596;28;20040;-87
2023/03/12 11:13:34;;;;;;;30.38;13.75;;;;;;;10.00;100.00;100756.59;5048943;28;20460;-88
2023/03/12 11:16:09;;;;;;;32.70;11.77;;;;;;;10.04;100.00;100755.03;5029761;28;20070;-89
2023/03/12 11:18:41;;;;;;;39.33;13.00;;;;;;;10.37;100.00;100750.44;5050923;28;20025;-89
2023/03/12 11:21:09;;;;;;;32.35;11.80;;;;;;;10.51;100.00;100758.84;5031614;28;20029;-87